createdAt,value
2019-02-24T00:00:47.599Z,5.16
2019-02-24T00:05:56.858Z,5.16
2019-02-24T00:11:04.591Z,5.21
2019-02-24T00:16:12.023Z,5.24
2019-02-24T00:21:17.927Z,5.23
2019-02-24T00:26:24.233Z,5.19
2019-02-24T00:31:31.471Z,5.18
2019-02-24T00:36:37.770Z,5.16
2019-02-24T00:41:43.660Z,5.24
2019-02-24T00:46:50.097Z,5.27
2019-02-24T00:51:55.930Z,5.20
2019-02-24T00:57:01.544Z,5.19
2019-02-24T01:02:07.403Z,4.92
2019-02-24T01:07:13.232Z,4.56
2019-02-24T01:12:18.831Z,4.51
2019-02-24T01:17:25.506Z,4.64
2019-02-24T01:22:32.597Z,4.78
2019-02-24T01:27:38.609Z,4.81
2019-02-24T01:32:45.269Z,4.83
2019-02-24T01:37:51.066Z,4.95
2019-02-24T01:42:57.581Z,4.80
2019-02-24T01:48:03.270Z,4.91
2019-02-24T01:53:09.536Z,4.96
2019-02-24T01:58:16.509Z,4.93
2019-02-24T02:03:22.516Z,5.00
2019-02-24T02:08:29.617Z,5.04
2019-02-24T02:13:35.244Z,5.09
2019-02-24T02:18:41.869Z,5.04
2019-02-24T02:23:47.852Z,4.91
2019-02-24T02:28:53.899Z,4.50
2019-02-24T02:33:59.827Z,4.52
2019-02-24T02:39:06.685Z,4.46
2019-02-24T02:44:13.191Z,4.31
2019-02-24T02:49:19.261Z,4.47
2019-02-24T02:54:25.128Z,4.35
2019-02-24T02:59:31.065Z,4.43
2019-02-24T03:04:38.406Z,4.33
2019-02-24T03:09:44.781Z,4.31
2019-02-24T03:14:51.832Z,4.51
2019-02-24T03:19:57.470Z,4.40
2019-02-24T03:25:04.023Z,4.27
2019-02-24T03:30:10.653Z,4.11
2019-02-24T03:35:16.355Z,4.11
2019-02-24T03:40:23.156Z,4.18
2019-02-24T03:45:29.863Z,3.90
2019-02-24T03:50:36.053Z,3.40
2019-02-24T03:55:41.691Z,3.29
2019-02-24T04:00:47.615Z,2.93
2019-02-24T04:05:53.138Z,3.11
2019-02-24T04:10:59.003Z,3.52
2019-02-24T04:16:05.653Z,3.32
2019-02-24T04:21:11.398Z,2.80
2019-02-24T04:26:17.397Z,2.19
2019-02-24T04:31:25.221Z,2.32
2019-02-24T04:36:30.868Z,2.34
2019-02-24T04:41:38.456Z,2.74
2019-02-24T04:46:45.444Z,2.50
2019-02-24T04:51:51.357Z,2.45
2019-02-24T04:56:57.817Z,2.71
2019-02-24T05:02:03.633Z,2.70
2019-02-24T05:07:10.076Z,2.85
2019-02-24T05:12:16.190Z,3.11
2019-02-24T05:17:21.917Z,3.25
2019-02-24T05:22:28.165Z,3.45
2019-02-24T05:27:34.101Z,3.55
2019-02-24T05:32:39.959Z,3.67
2019-02-24T05:37:45.519Z,3.77
2019-02-24T05:42:51.681Z,3.86
2019-02-24T05:47:59.097Z,4.01
2019-02-24T05:53:05.160Z,4.13
2019-02-24T05:58:11.159Z,4.26
2019-02-24T06:03:16.845Z,4.31
2019-02-24T06:08:22.886Z,4.39
2019-02-24T06:13:29.020Z,4.47
2019-02-24T06:18:35.168Z,4.62
2019-02-24T06:23:41.206Z,4.51
2019-02-24T06:28:47.545Z,4.41
2019-02-24T06:33:53.501Z,4.34
2019-02-24T06:38:59.587Z,3.99
2019-02-24T06:44:05.306Z,3.78
2019-02-24T06:49:11.150Z,3.75
2019-02-24T06:54:17.575Z,3.58
2019-02-24T06:59:24.487Z,3.76
2019-02-24T07:04:30.680Z,4.03
2019-02-24T07:09:36.420Z,4.18
2019-02-24T07:14:42.163Z,4.34
2019-02-24T07:19:47.856Z,4.52
2019-02-24T07:24:55.408Z,4.79
2019-02-24T07:30:03.280Z,4.87
2019-02-24T07:35:09.152Z,4.75
2019-02-24T07:40:15.264Z,4.70
2019-02-24T07:45:20.992Z,4.61
2019-02-24T07:50:26.602Z,4.76
2019-02-24T07:55:32.723Z,5.19
2019-02-24T08:00:38.877Z,5.13
2019-02-24T08:05:44.456Z,5.25
2019-02-24T08:10:50.090Z,5.26
2019-02-24T08:15:56.076Z,5.48
2019-02-24T08:21:02.121Z,5.67
2019-02-24T08:26:08.162Z,5.73
2019-02-24T08:31:14.218Z,5.58
2019-02-24T08:36:19.846Z,5.83
2019-02-24T08:41:26.882Z,5.77
2019-02-24T08:46:33.578Z,5.85
2019-02-24T08:51:40.517Z,5.81
2019-02-24T08:56:47.893Z,6.15
2019-02-24T09:01:55.224Z,6.49
2019-02-24T09:07:03.772Z,6.79
2019-02-24T09:12:10.007Z,6.98
2019-02-24T09:17:15.867Z,7.24
2019-02-24T09:22:21.981Z,7.17
2019-02-24T09:27:28.561Z,6.86
2019-02-24T09:32:34.943Z,6.81
2019-02-24T09:37:41.075Z,7.77
2019-02-24T09:42:47.352Z,7.80
2019-02-24T09:47:53.519Z,8.57
2019-02-24T09:53:00.690Z,9.48
2019-02-24T09:58:06.635Z,9.62
2019-02-24T10:03:12.782Z,9.78
2019-02-24T10:08:19.351Z,9.44
2019-02-24T10:13:26.360Z,10.60
2019-02-24T10:18:33.378Z,10.17
2019-02-24T10:23:40.428Z,10.66
2019-02-24T10:28:47.732Z,11.43
2019-02-24T10:33:54.622Z,12.15
2019-02-24T10:39:00.708Z,11.63
2019-02-24T10:44:08.610Z,12.14
2019-02-24T10:49:15.321Z,12.46
2019-02-24T10:54:22.854Z,13.20
2019-02-24T10:59:29.041Z,12.72
2019-02-24T11:04:36.391Z,13.74
2019-02-24T11:09:44.267Z,13.45
2019-02-24T11:14:51.031Z,14.36
2019-02-24T11:19:57.149Z,14.49
2019-02-24T11:25:03.339Z,14.97
2019-02-24T11:30:13.076Z,15.99
2019-02-24T11:35:20.684Z,16.32
2019-02-24T11:40:27.178Z,15.51
2019-02-24T11:45:33.894Z,15.32
2019-02-24T11:50:40.832Z,15.26
2019-02-24T11:55:48.049Z,14.87
2019-02-24T12:00:53.951Z,14.50
2019-02-24T12:06:00.643Z,15.27
2019-02-24T12:11:06.668Z,15.38
2019-02-24T12:16:12.624Z,16.18
2019-02-24T12:21:20.135Z,16.82
2019-02-24T12:26:25.743Z,16.27
2019-02-24T12:31:33.196Z,16.01
2019-02-24T12:36:41.929Z,16.38
2019-02-24T12:41:49.904Z,17.02
2019-02-24T12:46:57.147Z,16.16
2019-02-24T12:52:09.757Z,17.37
2019-02-24T12:57:20.334Z,17.67
2019-02-24T13:02:26.855Z,17.65
2019-02-24T13:07:36.245Z,16.96
2019-02-24T13:12:44.123Z,16.74
2019-02-24T13:17:54.374Z,17.93
2019-02-24T13:23:04.205Z,18.36
2019-02-24T13:28:11.141Z,17.32
2019-02-24T13:33:19.619Z,18.25
2019-02-24T13:38:27.698Z,18.03
2019-02-24T13:43:36.622Z,18.15
2019-02-24T13:48:44.107Z,18.61
2019-02-24T13:53:53.288Z,17.76
2019-02-24T13:59:00.309Z,18.55
2019-02-24T14:04:11.129Z,18.88
2019-02-24T14:09:18.948Z,20.49
2019-02-24T14:14:27.936Z,20.44
2019-02-24T14:19:37.988Z,20.02
2019-02-24T14:24:44.110Z,21.26
2019-02-24T14:29:53.054Z,22.49
2019-02-24T14:35:00.266Z,20.29
2019-02-24T14:40:10.806Z,22.39
2019-02-24T14:45:31.612Z,23.29
2019-02-24T14:50:41.151Z,23.12
2019-02-24T14:55:52.314Z,22.01
2019-02-24T15:01:02.294Z,21.97
2019-02-24T15:06:08.500Z,22.45
2019-02-24T15:11:17.611Z,23.37
2019-02-24T15:16:26.671Z,22.95
2019-02-24T15:21:43.686Z,22.46
2019-02-24T15:26:55.574Z,21.78
2019-02-24T15:32:04.956Z,21.44
2019-02-24T15:37:16.227Z,21.71
2019-02-24T15:42:26.362Z,19.54
2019-02-24T15:47:34.011Z,19.94
2019-02-24T15:52:41.580Z,19.13
2019-02-24T15:57:48.227Z,19.05
2019-02-24T16:03:01.482Z,18.39
2019-02-24T16:08:05.175Z,17.78
2019-02-24T16:13:17.008Z,17.98
2019-02-24T16:18:21.651Z,17.82
2019-02-24T16:23:27.686Z,17.45
2019-02-24T16:28:34.392Z,16.61
2019-02-24T16:33:42.328Z,16.33
2019-02-24T16:38:48.099Z,16.00
2019-02-24T16:43:56.072Z,15.47
2019-02-24T16:49:03.990Z,14.62
2019-02-24T16:54:10.499Z,14.50
2019-02-24T16:59:17.668Z,14.78
2019-02-24T17:04:23.816Z,14.34
2019-02-24T17:09:29.624Z,14.19
2019-02-24T17:14:36.400Z,14.59
2019-02-24T17:19:43.821Z,14.53
2019-02-24T17:24:49.899Z,14.40
2019-02-24T17:29:56.081Z,14.50
2019-02-24T17:35:02.875Z,14.41
2019-02-24T17:40:19.401Z,14.31
2019-02-24T17:45:27.135Z,14.36
2019-02-24T17:50:32.949Z,14.11
2019-02-24T17:55:38.758Z,13.81
2019-02-24T18:00:49.929Z,13.46
2019-02-24T18:05:55.623Z,12.84
2019-02-24T18:11:01.363Z,12.96
2019-02-24T18:16:07.410Z,13.18
2019-02-24T18:21:12.969Z,13.31
2019-02-24T18:26:20.745Z,13.41
2019-02-24T18:31:26.871Z,13.57
2019-02-24T18:36:32.679Z,12.60
2019-02-24T18:41:38.465Z,12.13
2019-02-24T18:46:45.361Z,11.88
2019-02-24T18:51:51.057Z,12.17
2019-02-24T18:56:56.605Z,12.16
2019-02-24T19:02:02.179Z,12.30
2019-02-24T19:07:08.040Z,12.46
2019-02-24T19:12:13.830Z,12.46
2019-02-24T19:17:19.385Z,11.81
2019-02-24T19:22:25.216Z,11.63
2019-02-24T19:27:31.066Z,11.89
2019-02-24T19:32:37.088Z,12.02
2019-02-24T19:37:43.947Z,12.22
2019-02-24T19:42:50.899Z,12.09
2019-02-24T19:47:56.515Z,12.14
2019-02-24T19:53:02.088Z,11.80
2019-02-24T19:58:07.907Z,12.05
2019-02-24T20:03:14.135Z,12.08
2019-02-24T20:08:19.765Z,11.86
2019-02-24T20:13:25.812Z,11.89
2019-02-24T20:18:31.535Z,11.86
2019-02-24T20:23:37.869Z,11.74
2019-02-24T20:28:45.053Z,11.66
2019-02-24T20:33:51.352Z,11.41
2019-02-24T20:38:57.577Z,11.50
2019-02-24T20:44:03.393Z,11.45
2019-02-24T20:49:09.113Z,11.67
2019-02-24T20:54:15.137Z,11.34
2019-02-24T20:59:21.466Z,10.46
2019-02-24T21:04:27.457Z,10.98
2019-02-24T21:09:34.001Z,10.63
2019-02-24T21:14:40.839Z,10.41
2019-02-24T21:19:47.108Z,9.95
2019-02-24T21:24:53.170Z,10.01
2019-02-24T21:29:59.143Z,10.28
2019-02-24T21:35:06.518Z,10.26
2019-02-24T21:40:19.327Z,10.05
2019-02-24T21:45:26.627Z,10.46
2019-02-24T21:50:32.578Z,10.52
2019-02-24T21:55:38.237Z,10.70
2019-02-24T22:00:44.107Z,10.62
2019-02-24T22:05:49.939Z,10.76
2019-02-24T22:10:55.504Z,10.92
2019-02-24T22:16:01.446Z,10.82
2019-02-24T22:21:07.009Z,10.63
2019-02-24T22:26:12.758Z,10.49
2019-02-24T22:31:18.324Z,10.43
2019-02-24T22:36:24.731Z,10.44
2019-02-24T22:41:30.361Z,10.45
2019-02-24T22:46:35.929Z,10.44
2019-02-24T22:51:43.931Z,10.31
2019-02-24T22:56:50.268Z,10.37
2019-02-24T23:01:56.280Z,10.16
2019-02-24T23:07:02.117Z,10.05
2019-02-24T23:12:07.837Z,9.57
2019-02-24T23:17:13.463Z,9.54
2019-02-24T23:22:19.328Z,9.46
2019-02-24T23:27:25.216Z,9.49
2019-02-24T23:32:31.416Z,9.46
2019-02-24T23:37:36.970Z,9.70
2019-02-24T23:42:42.799Z,10.13
2019-02-24T23:47:48.377Z,10.25
2019-02-24T23:52:54.243Z,10.18
2019-02-24T23:58:00.208Z,10.14
